Blue Jay, CA (92317)

2:54 AM PST on February 26, 2017 (GMT -0800)
Lake Arrowhead | | Change Station
Active Advisory: Wind Advisory

Elev 5200 ft 34.27 °N, 117.22 °W | Updated 21 seconds ago

Overcast
Overcast
29.0 °F
Feels Like 29 °F
N
0.0
Wind Variable Wind from SW
Gusts 10.0 mph

Today
High -- | Low -- °F
--% Chance of Precip.
Yesterday
High -- | Low -- °F
Precip. -- in
Pressure 29.87 in
Visibility 10.0 miles
Clouds Mostly Cloudy 4300 ft
Mostly Cloudy 4900 ft
Overcast 5500 ft
Windchill 29 °F
Dew Point 29 °F
Humidity 100%
Rainfall 0.00 in
Snow Depth Not available.
6:20 AM 5:42 PM
Waning Crescent, 0% visible
METAR KL35 261035Z AUTO 27003KT 10SM BKN043 BKN049 OVC055 00/M09 A2987 RMK AO2
Pressure 29.87 in
Visibility 10.0 miles
Clouds Mostly Cloudy 4300 ft
Mostly Cloudy 4900 ft
Overcast 5500 ft
Windchill 29 °F
Dew Point 29 °F
Humidity 100%
Rainfall 0.00 in
Snow Depth Not available.
6:20 AM 5:42 PM
Waning Crescent, 0% visible
METAR KL35 261035Z AUTO 27003KT 10SM BKN043 BKN049 OVC055 00/M09 A2987 RMK AO2

Get Your Daily Forecast Email!

Thanks for signing up!

Be on the lookout for a verification email in your inbox.

You'll start receiving the daily forecast at 8 AM.

×

10-Day Weather Forecast

Almanac

Astronomy

Feb. 26, 2017 Rise Set
Actual Time
Civil Twilight
Nautical Twilight
Astronomical Twilight
Moon
Length of Visible Light
Length of Day
Tomorrow will be .
, % of the Moon is Illuminated

Today's Extremes

State Highs State Lows

Community

WunderPhotos

Upload Photos

1,962,540 photos uploaded!

WunderBlog® & News

Nearby

Air Quality

  Air Quality AQ Index Pollutant
Not available.

Snow Depth

Station Depth Elevation

Earthquake Activity

City Distance Mag. Time & Date
Minimum magnitude displayed is 2.5.

Coastal Water Temperatures

Place Temperature

Stations

Nearby Weather Stations

Station Location Temp. Windchill Dew Point Humidity Wind Precip. Elev Updated Type
                   

Watches & Warnings

Wind Advisory
Issued: 7:19 PM PST Feb. 25, 2017 – National Weather Service

... Wind Advisory remains in effect until 10 PM PST Monday...

* winds... west winds 20 to 30 mph with gusts up to 60 mph.


* Timing... one round of winds is expected tonight, with a second
round of stronger and more widespread winds Sunday night into
Monday.

* Location... the strongest gusts up to 60 mph will be near
mountaintops and along the desert slopes... and across the
northern Coachella Valley below the San Gorgonio Pass.

* Impacts... driving will be hazardous for motorists in high
profile vehicles.

Precautionary/preparedness actions...

A Wind Advisory means that sustained winds of 35 mph, or gusts of
50 mph or more are expected. Winds this strong can make driving
difficult... especially for high profile vehicles. Use extra
caution.



Jmb